createdAt,value
2023-05-14T00:01:25.588Z,7.53
2023-05-14T00:03:52.964Z,7.05
2023-05-14T00:06:20.573Z,7.82
2023-05-14T00:08:49.169Z,7.85
2023-05-14T00:11:16.445Z,7.73
2023-05-14T00:13:43.688Z,7.53
2023-05-14T00:16:11.527Z,8.57
2023-05-14T00:18:38.817Z,7.60
2023-05-14T00:21:06.064Z,8.23
2023-05-14T00:23:33.268Z,7.83
2023-05-14T00:26:01.846Z,7.55
2023-05-14T00:28:29.055Z,8.15
2023-05-14T00:30:57.373Z,7.82
2023-05-14T00:33:24.570Z,7.43
2023-05-14T00:35:51.918Z,7.30
2023-05-14T00:38:19.666Z,7.43
2023-05-14T00:40:51.437Z,7.70
2023-05-14T00:43:21.145Z,7.65
2023-05-14T00:45:50.025Z,8.30
2023-05-14T00:48:17.647Z,8.40
2023-05-14T00:50:44.845Z,7.47
2023-05-14T00:53:12.540Z,8.25
2023-05-14T00:55:41.669Z,7.93
2023-05-14T00:58:11.101Z,7.70
2023-05-14T01:00:40.665Z,7.90
2023-05-14T01:03:09.171Z,7.25
2023-05-14T01:05:43.994Z,7.78
2023-05-14T01:08:21.691Z,8.10
2023-05-14T01:10:53.041Z,7.32
2023-05-14T01:13:27.250Z,7.53
2023-05-14T01:15:58.693Z,7.25
2023-05-14T01:18:28.362Z,7.50
2023-05-14T01:20:55.670Z,7.82
2023-05-14T01:23:24.593Z,8.10
2023-05-14T01:25:51.883Z,8.23
2023-05-14T01:28:22.487Z,8.40
2023-05-14T01:30:54.109Z,8.52
2023-05-14T01:33:24.895Z,8.45
2023-05-14T01:35:53.795Z,8.13
2023-05-14T01:38:22.227Z,7.87
2023-05-14T01:40:51.202Z,8.13
2023-05-14T01:43:19.290Z,8.30
2023-05-14T01:45:46.898Z,7.70
2023-05-14T01:48:14.174Z,8.23
2023-05-14T01:50:41.748Z,7.30
2023-05-14T01:53:09.075Z,7.72
2023-05-14T01:55:36.349Z,7.88
2023-05-14T01:58:05.007Z,7.15
2023-05-14T02:00:32.303Z,7.05
2023-05-14T02:02:59.593Z,7.23
2023-05-14T02:05:27.010Z,7.72
2023-05-14T02:07:54.266Z,7.18
2023-05-14T02:10:21.600Z,7.10
2023-05-14T02:12:48.981Z,7.55
2023-05-14T02:15:18.085Z,6.93
2023-05-14T02:17:45.770Z,7.15
2023-05-14T02:20:13.770Z,7.18
2023-05-14T02:22:45.706Z,7.00
2023-05-14T02:25:13.150Z,7.03
2023-05-14T02:27:40.578Z,7.20
2023-05-14T02:30:09.034Z,6.95
2023-05-14T02:32:38.376Z,6.95
2023-05-14T02:35:06.795Z,6.65
2023-05-14T02:37:34.924Z,6.70
2023-05-14T02:40:02.100Z,6.30
2023-05-14T02:42:29.250Z,6.47
2023-05-14T02:44:56.468Z,5.95
2023-05-14T02:47:23.678Z,6.15
2023-05-14T02:49:52.636Z,6.15
2023-05-14T02:52:19.825Z,5.80
2023-05-14T02:54:47.067Z,5.85
2023-05-14T02:57:14.314Z,6.50
2023-05-14T02:59:41.665Z,6.65
2023-05-14T03:02:09.196Z,5.93
2023-05-14T03:04:36.888Z,6.17
2023-05-14T03:07:05.898Z,6.10
2023-05-14T03:09:33.470Z,6.10
2023-05-14T03:12:01.409Z,5.82
2023-05-14T03:14:28.684Z,6.53
2023-05-14T03:16:56.012Z,6.47
2023-05-14T03:19:23.180Z,6.97
2023-05-14T03:21:50.353Z,5.85
2023-05-14T03:24:18.940Z,6.32
2023-05-14T03:26:46.195Z,6.13
2023-05-14T03:29:13.549Z,6.77
2023-05-14T03:31:40.832Z,6.43
2023-05-14T03:34:08.033Z,6.60
2023-05-14T03:36:36.511Z,6.90
2023-05-14T03:39:03.867Z,6.97
2023-05-14T03:41:32.550Z,7.57
2023-05-14T03:43:59.833Z,6.53
2023-05-14T03:46:27.135Z,7.43
2023-05-14T03:48:54.298Z,7.65
2023-05-14T03:51:21.624Z,7.50
2023-05-14T03:53:48.813Z,7.40
2023-05-14T03:56:16.129Z,7.07
2023-05-14T03:58:44.768Z,7.50
2023-05-14T04:01:11.919Z,7.53
2023-05-14T04:03:39.259Z,7.82
2023-05-14T04:06:06.883Z,7.90
2023-05-14T04:08:34.072Z,8.13
2023-05-14T04:11:01.324Z,7.45
2023-05-14T04:13:28.566Z,8.05
2023-05-14T04:15:57.179Z,8.30
2023-05-14T04:18:25.744Z,7.67
2023-05-14T04:20:52.977Z,7.88
2023-05-14T04:23:20.599Z,7.80
2023-05-14T04:25:47.786Z,8.70
2023-05-14T04:28:15.250Z,8.25
2023-05-14T04:30:42.459Z,8.17
2023-05-14T04:33:11.169Z,7.88
2023-05-14T04:35:38.775Z,8.25
2023-05-14T04:38:06.249Z,8.18
2023-05-14T04:40:33.398Z,7.78
2023-05-14T04:43:00.627Z,8.03
2023-05-14T04:45:27.850Z,7.85
2023-05-14T04:47:55.122Z,8.05
2023-05-14T04:50:24.064Z,8.68
2023-05-14T04:52:51.555Z,8.25
2023-05-14T04:55:18.763Z,8.40
2023-05-14T04:57:45.972Z,8.52
2023-05-14T05:00:13.960Z,8.63
2023-05-14T05:02:41.679Z,8.63
2023-05-14T05:05:09.977Z,8.93
2023-05-14T05:07:38.642Z,8.67
2023-05-14T05:10:07.192Z,8.60
2023-05-14T05:12:35.493Z,9.48
2023-05-14T05:15:02.713Z,9.07
2023-05-14T05:17:30.279Z,9.63
2023-05-14T05:19:57.474Z,7.90
2023-05-14T05:22:24.781Z,9.07
2023-05-14T05:24:53.582Z,8.98
2023-05-14T05:27:22.263Z,9.80
2023-05-14T05:29:49.420Z,9.15
2023-05-14T05:32:16.577Z,8.67
2023-05-14T05:34:43.831Z,9.02
2023-05-14T05:37:12.922Z,9.43
2023-05-14T05:39:40.213Z,9.80
2023-05-14T05:42:09.167Z,10.38
2023-05-14T05:44:36.461Z,9.63
2023-05-14T05:47:03.903Z,9.38
2023-05-14T05:49:31.099Z,9.07
2023-05-14T05:51:58.517Z,9.32
2023-05-14T05:54:25.871Z,9.45
2023-05-14T05:56:53.152Z,9.20
2023-05-14T05:59:22.059Z,9.13
2023-05-14T06:01:49.347Z,9.10
2023-05-14T06:04:16.682Z,8.80
2023-05-14T06:06:43.850Z,8.82
2023-05-14T06:09:11.151Z,8.37
2023-05-14T06:11:38.390Z,8.30
2023-05-14T06:14:05.704Z,8.18
2023-05-14T06:16:34.286Z,8.27
2023-05-14T06:19:02.143Z,7.97
2023-05-14T06:21:29.476Z,7.97
2023-05-14T06:23:56.692Z,7.30
2023-05-14T06:26:23.872Z,7.30
2023-05-14T06:28:51.137Z,7.63
2023-05-14T06:31:18.741Z,7.35
2023-05-14T06:33:47.465Z,7.23
2023-05-14T06:36:14.643Z,7.65
2023-05-14T06:38:41.903Z,7.75
2023-05-14T06:41:09.342Z,7.70
2023-05-14T06:43:36.740Z,7.57
2023-05-14T06:46:03.908Z,7.30
2023-05-14T06:48:31.663Z,7.90
2023-05-14T06:51:00.435Z,7.30
2023-05-14T06:53:27.721Z,7.07
2023-05-14T06:55:56.465Z,7.68
2023-05-14T06:58:23.803Z,7.40
2023-05-14T07:00:51.105Z,7.97
2023-05-14T07:03:18.438Z,7.38
2023-05-14T07:05:46.982Z,6.80
2023-05-14T07:08:15.697Z,6.45
2023-05-14T07:10:43.016Z,6.50
2023-05-14T07:13:10.527Z,6.43
2023-05-14T07:15:37.901Z,5.35
2023-05-14T07:18:05.287Z,4.78
2023-05-14T07:20:32.736Z,4.90
2023-05-14T07:23:00.107Z,4.23
2023-05-14T07:25:28.851Z,3.60
2023-05-14T07:27:56.226Z,4.10
2023-05-14T07:30:23.734Z,3.65
2023-05-14T07:32:51.423Z,3.65
2023-05-14T07:35:18.717Z,3.40
2023-05-14T07:37:46.257Z,3.30
2023-05-14T07:40:13.839Z,2.70
2023-05-14T07:42:42.471Z,2.67
2023-05-14T07:45:10.799Z,2.80
2023-05-14T07:47:39.053Z,2.93
2023-05-14T07:50:07.709Z,3.03
2023-05-14T07:52:34.895Z,3.17
2023-05-14T07:55:03.376Z,3.15
2023-05-14T07:57:31.036Z,4.15
2023-05-14T07:59:59.750Z,3.70
2023-05-14T08:02:27.371Z,3.58
2023-05-14T08:04:54.632Z,3.42
2023-05-14T08:07:22.143Z,3.05
2023-05-14T08:09:49.481Z,3.85
2023-05-14T08:12:16.747Z,3.50
2023-05-14T08:14:44.007Z,3.95
2023-05-14T08:17:12.766Z,3.60
2023-05-14T08:19:40.309Z,3.55
2023-05-14T08:22:07.583Z,3.58
2023-05-14T08:24:34.904Z,3.50
2023-05-14T08:27:02.464Z,3.33
2023-05-14T08:29:29.837Z,3.90
2023-05-14T08:31:58.053Z,3.58
2023-05-14T08:34:28.012Z,3.90
2023-05-14T08:36:55.455Z,3.97
2023-05-14T08:39:22.945Z,4.20
2023-05-14T08:41:50.403Z,4.53
2023-05-14T08:44:20.472Z,3.90
2023-05-14T08:46:49.819Z,4.03
2023-05-14T08:49:29.199Z,3.83
2023-05-14T08:51:58.188Z,3.90
2023-05-14T08:54:27.408Z,4.03
2023-05-14T08:56:54.825Z,4.00
2023-05-14T08:59:22.317Z,4.55
2023-05-14T09:01:53.125Z,4.20
2023-05-14T09:04:22.468Z,4.28
2023-05-14T09:06:51.485Z,4.50
2023-05-14T09:09:24.081Z,4.50
2023-05-14T09:11:52.689Z,4.10
2023-05-14T09:14:21.117Z,4.07
2023-05-14T09:16:50.287Z,3.45
2023-05-14T09:19:21.203Z,3.53
2023-05-14T09:21:50.264Z,3.90
2023-05-14T09:24:23.353Z,3.58
2023-05-14T09:26:51.931Z,3.17
2023-05-14T09:29:19.465Z,3.40
2023-05-14T09:31:47.016Z,3.53
2023-05-14T09:34:24.162Z,3.45
2023-05-14T09:36:54.504Z,3.70
2023-05-14T09:39:23.955Z,3.33
2023-05-14T09:41:52.072Z,2.95
2023-05-14T09:44:19.823Z,3.13
2023-05-14T09:46:47.644Z,2.95
2023-05-14T09:49:15.365Z,3.05
2023-05-14T09:51:42.751Z,2.90
2023-05-14T09:54:10.429Z,2.80
2023-05-14T09:56:39.731Z,3.10
2023-05-14T09:59:07.041Z,3.10
2023-05-14T10:01:35.267Z,3.40
2023-05-14T10:04:04.781Z,3.50
2023-05-14T10:06:36.503Z,3.42
2023-05-14T10:09:05.943Z,3.72
2023-05-14T10:11:36.971Z,4.28
2023-05-14T10:14:08.723Z,4.28
2023-05-14T10:16:43.089Z,4.23
2023-05-14T10:19:12.048Z,4.53
2023-05-14T10:21:41.761Z,4.32
2023-05-14T10:24:10.829Z,4.60
2023-05-14T10:26:40.920Z,4.38
2023-05-14T10:29:10.430Z,4.70
2023-05-14T10:31:49.342Z,4.43
2023-05-14T10:34:33.749Z,4.47
2023-05-14T10:37:02.078Z,4.28
2023-05-14T10:39:46.906Z,4.70
2023-05-14T10:42:17.150Z,4.30
2023-05-14T10:44:55.076Z,3.70
2023-05-14T10:47:22.767Z,4.50
2023-05-14T10:49:50.352Z,5.30
2023-05-14T10:52:19.973Z,5.22
2023-05-14T10:54:50.874Z,5.63
2023-05-14T10:57:19.131Z,5.68
2023-05-14T10:59:47.744Z,5.00
2023-05-14T11:02:24.315Z,4.07
2023-05-14T11:05:00.014Z,3.85
2023-05-14T11:07:29.578Z,4.27
2023-05-14T11:10:04.386Z,4.18
2023-05-14T11:12:32.328Z,3.90
2023-05-14T11:15:02.300Z,3.67
2023-05-14T11:17:31.757Z,3.50
2023-05-14T11:20:00.202Z,3.50
2023-05-14T11:22:27.788Z,3.70
2023-05-14T11:24:55.293Z,3.80
2023-05-14T11:27:24.321Z,3.83
2023-05-14T11:29:51.598Z,3.70
2023-05-14T11:32:20.545Z,4.03
2023-05-14T11:34:49.399Z,4.07
2023-05-14T11:37:17.252Z,4.38
2023-05-14T11:39:48.677Z,4.22
2023-05-14T11:42:17.598Z,3.72
2023-05-14T11:44:46.102Z,4.00
2023-05-14T11:47:13.600Z,3.63
2023-05-14T11:49:41.175Z,4.40
2023-05-14T11:52:11.776Z,3.42
2023-05-14T11:54:39.060Z,3.55
2023-05-14T11:57:10.477Z,3.80
2023-05-14T11:59:38.312Z,4.57
2023-05-14T12:02:08.468Z,3.90
2023-05-14T12:04:35.909Z,4.18
2023-05-14T12:07:12.045Z,4.90
2023-05-14T12:09:42.606Z,3.23
2023-05-14T12:12:12.582Z,3.85
2023-05-14T12:14:42.784Z,3.28
2023-05-14T12:17:15.269Z,3.50
2023-05-14T12:19:44.074Z,3.08
2023-05-14T12:22:15.980Z,2.73
2023-05-14T12:24:44.111Z,2.40
2023-05-14T12:27:12.001Z,2.25
2023-05-14T12:29:39.642Z,2.35
2023-05-14T12:32:10.494Z,2.15
2023-05-14T12:34:38.730Z,2.00
2023-05-14T12:37:06.698Z,2.25
2023-05-14T12:39:35.871Z,2.28
2023-05-14T12:42:03.116Z,2.35
2023-05-14T12:44:30.552Z,2.17
2023-05-14T12:46:58.125Z,1.93
2023-05-14T12:49:25.484Z,2.05
2023-05-14T12:52:00.699Z,1.85
2023-05-14T12:54:43.579Z,1.85
2023-05-14T12:57:10.801Z,1.60
2023-05-14T12:59:37.983Z,1.90
2023-05-14T13:02:05.487Z,1.95
2023-05-14T13:04:32.652Z,2.15
2023-05-14T13:07:00.331Z,2.30
2023-05-14T13:09:28.106Z,2.20
2023-05-14T13:11:56.799Z,2.10
2023-05-14T13:14:24.010Z,2.28
2023-05-14T13:16:51.319Z,2.08
2023-05-14T13:19:18.885Z,1.80
2023-05-14T13:21:46.060Z,2.10
2023-05-14T13:24:13.249Z,2.57
2023-05-14T13:26:40.454Z,2.35
2023-05-14T13:29:09.101Z,2.42
2023-05-14T13:31:36.511Z,2.80
2023-05-14T13:34:04.381Z,2.80
2023-05-14T13:36:32.346Z,3.00
2023-05-14T13:38:59.739Z,2.85
2023-05-14T13:41:26.936Z,3.55
2023-05-14T13:43:54.247Z,1.98
2023-05-14T13:46:23.116Z,2.92
2023-05-14T13:48:50.352Z,3.60
2023-05-14T13:51:17.510Z,2.15
2023-05-14T13:53:45.283Z,2.33
2023-05-14T13:56:12.456Z,2.22
2023-05-14T13:58:40.119Z,2.40
2023-05-14T14:01:07.899Z,1.70
2023-05-14T14:03:36.512Z,1.85
2023-05-14T14:06:03.892Z,2.15
2023-05-14T14:08:31.326Z,2.03
2023-05-14T14:10:58.543Z,2.63
2023-05-14T14:13:26.076Z,2.47
2023-05-14T14:15:53.490Z,2.50
2023-05-14T14:18:21.136Z,2.33
2023-05-14T14:20:52.507Z,2.58
2023-05-14T14:23:19.797Z,2.78
2023-05-14T14:25:47.278Z,2.70
2023-05-14T14:28:14.700Z,2.00
2023-05-14T14:30:42.731Z,2.08
2023-05-14T14:33:10.135Z,2.10
2023-05-14T14:35:37.851Z,2.25
2023-05-14T14:38:06.486Z,2.27
2023-05-14T14:40:34.114Z,2.30
2023-05-14T14:43:02.138Z,2.33
2023-05-14T14:45:29.594Z,2.35
2023-05-14T14:48:25.137Z,2.53
2023-05-14T14:50:52.664Z,2.30
2023-05-14T14:53:22.025Z,2.33
2023-05-14T14:55:49.365Z,2.30
2023-05-14T14:58:16.763Z,2.33
2023-05-14T15:00:44.318Z,2.28
2023-05-14T15:03:12.132Z,2.50
2023-05-14T15:05:39.648Z,2.60
2023-05-14T15:08:06.906Z,2.60
2023-05-14T15:10:38.151Z,3.25
2023-05-14T15:13:06.895Z,2.90
2023-05-14T15:15:35.308Z,2.57
2023-05-14T15:18:02.803Z,2.78
2023-05-14T15:20:30.282Z,2.30
2023-05-14T15:22:57.664Z,1.92
2023-05-14T15:25:25.400Z,2.05
2023-05-14T15:27:54.572Z,2.10
2023-05-14T15:30:21.829Z,2.40
2023-05-14T15:32:49.518Z,3.03
2023-05-14T15:35:17.156Z,2.30
2023-05-14T15:37:44.906Z,2.17
2023-05-14T15:40:12.973Z,2.10
2023-05-14T15:42:42.248Z,2.35
2023-05-14T15:45:12.640Z,2.90
2023-05-14T15:47:40.441Z,4.10
2023-05-14T15:50:08.749Z,5.50
2023-05-14T15:52:39.500Z,3.87
2023-05-14T15:55:07.561Z,4.10
2023-05-14T15:57:35.238Z,3.20
2023-05-14T16:00:08.581Z,2.50
2023-05-14T16:02:37.713Z,3.13
2023-05-14T16:05:05.792Z,2.97
2023-05-14T16:07:33.606Z,3.20
2023-05-14T16:10:00.838Z,2.72
2023-05-14T16:12:28.241Z,3.10
2023-05-14T16:14:57.239Z,2.70
2023-05-14T16:17:24.715Z,2.50
2023-05-14T16:19:55.941Z,2.28
2023-05-14T16:22:23.712Z,2.33
2023-05-14T16:24:51.055Z,2.00
2023-05-14T16:27:21.242Z,2.38
2023-05-14T16:29:48.542Z,1.90
2023-05-14T16:32:15.983Z,2.20
2023-05-14T16:34:49.933Z,2.55
2023-05-14T16:37:21.964Z,2.63
2023-05-14T16:39:49.165Z,3.53
2023-05-14T16:42:16.376Z,3.00
2023-05-14T16:44:44.003Z,2.40
2023-05-14T16:47:11.264Z,1.50
2023-05-14T16:49:38.675Z,1.38
2023-05-14T16:52:06.927Z,1.58
2023-05-14T16:54:35.606Z,1.60
2023-05-14T16:57:02.868Z,1.60
2023-05-14T16:59:30.116Z,1.63
2023-05-14T17:01:57.616Z,1.50
2023-05-14T17:04:26.786Z,1.35
2023-05-14T17:06:54.640Z,1.67
2023-05-14T17:09:22.258Z,2.53
2023-05-14T17:11:51.389Z,1.92
2023-05-14T17:14:18.618Z,1.70
2023-05-14T17:16:45.911Z,1.80
2023-05-14T17:19:13.333Z,1.33
2023-05-14T17:21:40.995Z,1.17
2023-05-14T17:24:08.507Z,1.17
2023-05-14T17:26:35.764Z,1.17
2023-05-14T17:29:04.697Z,1.20
2023-05-14T17:31:32.065Z,1.50
2023-05-14T17:33:59.368Z,2.20
2023-05-14T17:36:28.721Z,2.38
2023-05-14T17:38:55.964Z,1.80
2023-05-14T17:41:23.228Z,1.50
2023-05-14T17:43:52.556Z,1.23
2023-05-14T17:46:21.473Z,1.50
2023-05-14T17:48:48.939Z,1.52
2023-05-14T17:51:16.443Z,1.63
2023-05-14T17:53:43.642Z,1.50
2023-05-14T17:56:11.128Z,1.60
2023-05-14T17:58:38.503Z,1.83
2023-05-14T18:01:06.438Z,2.15
2023-05-14T18:03:35.606Z,2.28
2023-05-14T18:06:02.911Z,2.80
2023-05-14T18:08:30.416Z,2.80
2023-05-14T18:11:00.152Z,2.00
2023-05-14T18:13:27.573Z,1.70
2023-05-14T18:15:56.677Z,1.60
2023-05-14T18:18:24.216Z,2.30
2023-05-14T18:20:53.795Z,2.73
2023-05-14T18:23:21.201Z,2.97
2023-05-14T18:25:48.596Z,2.42
2023-05-14T18:28:15.948Z,1.73
2023-05-14T18:30:43.865Z,1.85
2023-05-14T18:33:11.816Z,1.50
2023-05-14T18:35:39.738Z,1.40
2023-05-14T18:38:08.360Z,1.52
2023-05-14T18:40:35.594Z,1.42
2023-05-14T18:43:03.253Z,1.52
2023-05-14T18:45:30.552Z,1.20
2023-05-14T18:47:57.912Z,1.70
2023-05-14T18:50:25.657Z,1.75
2023-05-14T18:52:53.106Z,2.13
2023-05-14T18:55:21.975Z,2.05
2023-05-14T18:57:49.794Z,1.90
2023-05-14T19:00:17.654Z,2.15
2023-05-14T19:02:44.863Z,2.00
2023-05-14T19:05:12.293Z,1.92
2023-05-14T19:07:41.002Z,2.05
2023-05-14T19:10:09.707Z,2.40
2023-05-14T19:12:38.490Z,2.22
2023-05-14T19:15:07.460Z,2.63
2023-05-14T19:17:37.564Z,2.33
2023-05-14T19:20:06.481Z,2.35
2023-05-14T19:22:34.033Z,3.00
2023-05-14T19:25:01.532Z,2.40
2023-05-14T19:27:29.094Z,2.63
2023-05-14T19:29:57.853Z,2.58
2023-05-14T19:32:25.058Z,2.45
2023-05-14T19:34:52.368Z,2.40
2023-05-14T19:37:19.652Z,3.03
2023-05-14T19:39:46.812Z,6.03
2023-05-14T19:42:14.008Z,5.70
2023-05-14T19:44:41.435Z,5.45
2023-05-14T19:47:10.550Z,5.17
2023-05-14T19:49:38.012Z,4.53
2023-05-14T19:52:05.891Z,4.93
2023-05-14T19:54:33.337Z,4.80
2023-05-14T19:57:00.838Z,4.40
2023-05-14T19:59:29.964Z,2.80
2023-05-14T20:01:57.596Z,2.90
2023-05-14T20:04:26.355Z,2.78
2023-05-14T20:06:53.777Z,2.80
2023-05-14T20:09:21.373Z,2.97
2023-05-14T20:11:48.817Z,2.80
2023-05-14T20:14:16.530Z,2.08
2023-05-14T20:16:43.855Z,2.08
2023-05-14T20:19:11.230Z,2.53
2023-05-14T20:21:40.133Z,3.00
2023-05-14T20:24:07.681Z,3.83
2023-05-14T20:26:34.976Z,4.20
2023-05-14T20:29:02.405Z,3.17
2023-05-14T20:31:29.821Z,5.47
2023-05-14T20:33:57.075Z,5.60
2023-05-14T20:36:24.604Z,2.37
2023-05-14T20:38:53.415Z,2.45
2023-05-14T20:41:21.168Z,2.35
2023-05-14T20:43:48.345Z,2.47
2023-05-14T20:46:15.636Z,1.90
2023-05-14T20:48:42.925Z,2.00
2023-05-14T20:51:10.197Z,1.63
2023-05-14T20:53:39.254Z,1.73
2023-05-14T20:56:07.957Z,2.15
2023-05-14T20:58:35.708Z,2.00
2023-05-14T21:01:03.966Z,2.70
2023-05-14T21:03:31.529Z,2.78
2023-05-14T21:06:00.689Z,2.97
2023-05-14T21:08:27.985Z,3.13
2023-05-14T21:10:55.169Z,2.35
2023-05-14T21:13:23.928Z,2.30
2023-05-14T21:15:51.354Z,2.58
2023-05-14T21:18:18.674Z,3.75
2023-05-14T21:20:45.887Z,2.67
2023-05-14T21:23:13.100Z,2.70
2023-05-14T21:25:40.353Z,2.33
2023-05-14T21:28:08.177Z,2.72
2023-05-14T21:30:36.726Z,2.95
2023-05-14T21:33:04.088Z,2.65
2023-05-14T21:35:31.484Z,3.47
2023-05-14T21:37:58.802Z,3.27
2023-05-14T21:40:26.216Z,3.17
2023-05-14T21:42:53.437Z,4.15
2023-05-14T21:45:23.404Z,3.67
2023-05-14T21:47:52.487Z,3.60
2023-05-14T21:50:19.798Z,3.20
2023-05-14T21:52:47.481Z,3.65
2023-05-14T21:55:14.848Z,3.35
2023-05-14T21:57:42.209Z,3.30
2023-05-14T22:00:13.235Z,2.97
2023-05-14T22:02:41.023Z,2.90
2023-05-14T22:05:10.101Z,2.42
2023-05-14T22:07:37.341Z,2.83
2023-05-14T22:10:05.109Z,2.58
2023-05-14T22:12:32.340Z,2.60
2023-05-14T22:14:59.660Z,2.67
2023-05-14T22:17:28.079Z,2.67
2023-05-14T22:19:55.474Z,2.58
2023-05-14T22:22:24.093Z,2.88
2023-05-14T22:24:51.240Z,2.70
2023-05-14T22:27:18.550Z,3.40
2023-05-14T22:29:45.772Z,3.38
2023-05-14T22:32:12.922Z,3.85
2023-05-14T22:34:40.208Z,3.47
2023-05-14T22:37:08.196Z,3.35
2023-05-14T22:39:36.911Z,2.93
2023-05-14T22:42:04.514Z,3.17
2023-05-14T22:44:31.714Z,4.85
2023-05-14T22:46:59.373Z,4.72
2023-05-14T22:49:26.613Z,4.82
2023-05-14T22:51:54.551Z,3.80
2023-05-14T22:54:21.843Z,3.88
2023-05-14T22:56:51.809Z,3.42
2023-05-14T22:59:19.799Z,3.83
2023-05-14T23:01:47.879Z,4.38
2023-05-14T23:04:15.019Z,3.77
2023-05-14T23:06:42.303Z,4.40
2023-05-14T23:09:09.587Z,5.15
2023-05-14T23:11:36.770Z,4.00
2023-05-14T23:14:05.418Z,4.15
2023-05-14T23:16:32.732Z,3.90
2023-05-14T23:19:00.065Z,4.82
2023-05-14T23:21:27.493Z,5.88
2023-05-14T23:23:54.728Z,5.10
2023-05-14T23:26:21.928Z,5.35
2023-05-14T23:28:49.115Z,5.07
2023-05-14T23:31:17.844Z,4.30
2023-05-14T23:33:45.314Z,4.68
2023-05-14T23:36:12.613Z,4.90
2023-05-14T23:38:40.869Z,4.80
2023-05-14T23:41:07.987Z,4.50
2023-05-14T23:43:35.228Z,4.57
2023-05-14T23:46:02.639Z,3.90
2023-05-14T23:48:31.678Z,3.88
2023-05-14T23:50:58.904Z,4.63
2023-05-14T23:53:26.302Z,4.17
2023-05-14T23:55:53.511Z,3.83
2023-05-14T23:58:20.884Z,4.13
